»·PEaware :: N210AR KWJF-49X

N210AR :: KWJF-49X

FLIGHT INFORMATION

Flight Status: Arrived
Operator: Privately registered:
United States
More flights under this callsign
Pilot: Max S. (16657)
Aircraft: CESSNA 172 SKYHAWK
(C172)
More flights by this aircraft type
Origin: KWJF Gen Fox
United States
Destination: 49X Chemehuevi Valley
United States
More flights between these airports :: More routes between these airports
Route: +EED
File this flight plan on PilotEdge
Remarks: ALPHABET CHALLENGE
Altitude:
(Current/Filed)
7,500ft
Speed:
(Current/Filed)
110kts
Departed: 16-Dec-19 08:15 AM
Arrived: 16-Dec-19 10:28 AM
Distance/Time
Traveled:
187nm/2:13
Distance/Time
To Go:
Arrived

Flight Plot

Page will automatically refresh every two minutes.

Flight plan parsing failed; only flown route is shown


Map Options




Map Legend


Flown Route
Filed Route
Departure Airport
Arrival Airport
Navaid (VOR, NDB)
Fix

Horizontal Profiles

Position Reports

Time Latitude Longitude Heading Altitude Ground
Speed
16-Dec-19 08:04 34.739150 -118.216870 246 2343ft 0kts
16-Dec-19 08:05 34.739150 -118.216870 246 2343ft 0kts
16-Dec-19 08:06 34.739492 -118.217471 321 2344ft 10kts
16-Dec-19 08:07 34.740733 -118.216233 69 2343ft 18kts
16-Dec-19 08:08 34.741869 -118.212038 72 2339ft 26kts
16-Dec-19 08:09 34.743200 -118.207183 42 2334ft 17kts
16-Dec-19 08:10 34.743318 -118.207069 34 2334ft 0kts
16-Dec-19 08:11 34.743318 -118.207069 34 2334ft 0kts
16-Dec-19 08:12 34.743318 -118.207069 34 2334ft 0kts
16-Dec-19 08:13 34.743820 -118.207373 310 2334ft 14kts
16-Dec-19 08:14 34.740729 -118.219888 254 2551ft 79kts
16-Dec-19 08:15 34.743360 -118.236329 341 3190ft 76kts
16-Dec-19 08:16 34.750933 -118.225326 70 3808ft 65kts
16-Dec-19 08:17 34.754304 -118.209072 87 4308ft 67kts
16-Dec-19 08:18 34.752762 -118.195996 95 4661ft 71kts
16-Dec-19 08:19 34.751418 -118.182449 91 4992ft 79kts
16-Dec-19 08:20 34.749850 -118.167997 96 5399ft 79kts
16-Dec-19 08:21 34.745916 -118.149740 84 5898ft 79kts
16-Dec-19 08:22 34.744439 -118.132178 88 6374ft 78kts
16-Dec-19 08:23 34.743746 -118.111920 85 6741ft 91kts
16-Dec-19 08:24 34.743699 -118.092616 83 7046ft 99kts
16-Dec-19 08:25 34.741736 -118.067262 94 7412ft 104kts
16-Dec-19 08:26 34.737531 -118.037675 94 7464ft 123kts
16-Dec-19 08:27 34.733091 -118.005695 95 7462ft 128kts
16-Dec-19 08:28 34.726058 -117.976996 102 7461ft 130kts
16-Dec-19 08:29 34.719031 -117.949904 102 7460ft 130kts
16-Dec-19 08:30 34.712054 -117.923295 102 7473ft 132kts
16-Dec-19 08:31 34.704282 -117.893622 100 7459ft 131kts
16-Dec-19 08:32 34.704290 -117.862761 76 7458ft 126kts
16-Dec-19 08:33 34.708951 -117.828053 74 7456ft 126kts
16-Dec-19 08:34 34.713788 -117.794535 74 7456ft 126kts
16-Dec-19 08:35 34.718508 -117.761902 74 7456ft 126kts
16-Dec-19 08:36 34.723127 -117.729154 74 7436ft 126kts
16-Dec-19 08:37 34.727894 -117.696755 74 7456ft 126kts
16-Dec-19 08:38 34.732579 -117.664260 75 7456ft 126kts
16-Dec-19 08:39 34.737259 -117.631656 75 7456ft 126kts
16-Dec-19 08:40 34.741950 -117.599125 75 7456ft 126kts
16-Dec-19 08:41 34.746551 -117.566750 75 7456ft 126kts
16-Dec-19 08:42 34.751261 -117.533846 75 7456ft 126kts
16-Dec-19 08:43 34.755586 -117.503550 74 7456ft 126kts
16-Dec-19 08:44 34.758706 -117.473286 81 7456ft 127kts
16-Dec-19 08:45 34.760119 -117.441137 82 7456ft 128kts
16-Dec-19 08:46 34.761390 -117.407400 82 7456ft 128kts
16-Dec-19 08:47 34.762694 -117.372101 82 7456ft 128kts
16-Dec-19 08:48 34.763864 -117.340197 83 7456ft 128kts
16-Dec-19 08:49 34.765109 -117.305945 83 7457ft 128kts
16-Dec-19 08:50 34.766256 -117.274180 82 7458ft 128kts
16-Dec-19 08:51 34.767386 -117.242647 82 7459ft 128kts
16-Dec-19 08:52 34.768511 -117.211014 82 7460ft 129kts
16-Dec-19 08:53 34.769614 -117.179785 82 7462ft 129kts
16-Dec-19 08:54 34.770885 -117.143541 82 7463ft 129kts
16-Dec-19 08:55 34.772279 -117.103370 82 7465ft 130kts
16-Dec-19 08:56 34.773640 -117.063798 82 7468ft 130kts
16-Dec-19 08:57 34.775077 -117.022289 82 7472ft 131kts
16-Dec-19 08:58 34.776219 -116.987834 82 7475ft 132kts
16-Dec-19 08:59 34.777411 -116.952103 82 7477ft 133kts
16-Dec-19 09:00 34.778385 -116.910970 84 7480ft 134kts
16-Dec-19 09:01 34.777301 -116.868677 85 7483ft 135kts
16-Dec-19 09:02 34.777776 -116.823654 82 7483ft 135kts
16-Dec-19 09:03 34.778939 -116.780635 82 7483ft 135kts
16-Dec-19 09:04 34.780061 -116.743278 82 7484ft 135kts
16-Dec-19 09:05 34.781143 -116.708480 82 7484ft 135kts
16-Dec-19 09:06 34.782458 -116.665575 82 7484ft 135kts
16-Dec-19 09:07 34.783774 -116.622278 82 7484ft 135kts
16-Dec-19 09:08 34.785080 -116.578818 82 7484ft 135kts
16-Dec-19 09:09 34.786204 -116.541046 82 7484ft 135kts
16-Dec-19 09:10 34.787516 -116.496382 82 7484ft 135kts
16-Dec-19 09:11 34.788761 -116.453389 82 7484ft 135kts
16-Dec-19 09:12 34.788931 -116.417011 84 7484ft 135kts
16-Dec-19 09:13 34.788817 -116.383671 84 7484ft 135kts
16-Dec-19 09:14 34.788531 -116.350017 84 7483ft 135kts
16-Dec-19 09:15 34.788276 -116.318018 85 7480ft 134kts
16-Dec-19 09:16 34.787876 -116.285730 85 7479ft 134kts
16-Dec-19 09:17 34.787489 -116.253328 85 7478ft 134kts
16-Dec-19 09:18 34.787100 -116.220577 85 7477ft 133kts
16-Dec-19 09:19 34.786746 -116.188416 86 7245ft 145kts
16-Dec-19 09:20 34.786324 -116.159379 85 7116ft 124kts
16-Dec-19 09:21 34.785977 -116.131384 85 7108ft 121kts
16-Dec-19 09:22 34.785640 -116.104303 85 7108ft 120kts
16-Dec-19 09:23 34.785285 -116.076714 85 7108ft 120kts
16-Dec-19 09:24 34.784913 -116.048537 85 7108ft 120kts
16-Dec-19 09:25 34.784534 -116.021043 85 7108ft 120kts
16-Dec-19 09:26 34.784127 -115.992835 85 7108ft 120kts
16-Dec-19 09:27 34.783753 -115.965138 85 7108ft 120kts
16-Dec-19 09:28 34.783352 -115.935603 85 7108ft 120kts
16-Dec-19 09:29 34.782928 -115.906847 85 7108ft 120kts
16-Dec-19 09:30 34.782493 -115.877580 85 7108ft 120kts
16-Dec-19 09:31 34.782075 -115.849061 85 7108ft 120kts
16-Dec-19 09:32 34.781613 -115.819179 85 7108ft 120kts
16-Dec-19 09:34 34.781157 -115.789874 85 7108ft 120kts
16-Dec-19 09:35 34.780687 -115.760602 85 7108ft 120kts
16-Dec-19 09:36 34.780195 -115.729457 85 7108ft 120kts
16-Dec-19 09:37 34.779704 -115.698401 85 7108ft 120kts
16-Dec-19 09:38 34.779189 -115.667650 85 7119ft 119kts
16-Dec-19 09:39 34.778672 -115.637133 84 7166ft 118kts
16-Dec-19 09:40 34.778161 -115.606840 84 7213ft 118kts
16-Dec-19 09:41 34.777689 -115.579266 84 7256ft 118kts
16-Dec-19 09:42 34.777146 -115.548598 83 7305ft 116kts
16-Dec-19 09:43 34.777166 -115.517716 79 7353ft 117kts
16-Dec-19 09:44 34.777705 -115.494078 81 7389ft 118kts
16-Dec-19 09:45 34.777731 -115.473111 82 7422ft 118kts
16-Dec-19 09:46 34.777731 -115.473111 82 7422ft 118kts
16-Dec-19 09:47 34.777485 -115.447166 82 7463ft 119kts
16-Dec-19 09:48 34.776975 -115.413882 82 7483ft 119kts
16-Dec-19 09:49 34.776376 -115.380374 82 7483ft 119kts
16-Dec-19 09:50 34.775820 -115.350721 82 7483ft 119kts
16-Dec-19 09:51 34.775264 -115.321684 83 7482ft 119kts
16-Dec-19 09:52 34.774701 -115.292811 83 7482ft 119kts
16-Dec-19 09:52 34.774249 -115.269915 83 7482ft 119kts
16-Dec-19 09:54 34.773576 -115.236212 83 7483ft 119kts
16-Dec-19 09:55 34.773498 -115.232363 83 7483ft 119kts
16-Dec-19 09:55 34.773342 -115.224629 83 7483ft 119kts
16-Dec-19 09:57 34.772725 -115.194303 83 7483ft 119kts
16-Dec-19 09:57 34.772236 -115.170454 83 7483ft 119kts
16-Dec-19 09:58 34.771658 -115.142604 83 7483ft 120kts
16-Dec-19 10:00 34.770989 -115.110828 83 7483ft 120kts
16-Dec-19 10:00 34.770507 -115.088178 83 7483ft 120kts
16-Dec-19 10:01 34.769916 -115.060380 83 7483ft 121kts
16-Dec-19 10:03 34.769201 -115.027705 84 7483ft 121kts
16-Dec-19 10:03 34.768680 -115.004023 84 7483ft 121kts
16-Dec-19 10:04 34.768045 -114.975397 84 7483ft 122kts
16-Dec-19 10:05 34.767882 -114.948220 80 7483ft 121kts
16-Dec-19 10:06 34.769004 -114.919660 80 7483ft 121kts
16-Dec-19 10:07 34.769211 -114.890669 83 7483ft 122kts
16-Dec-19 10:08 34.768644 -114.861259 84 7483ft 122kts
16-Dec-19 10:09 34.767983 -114.831873 84 7483ft 122kts
16-Dec-19 10:10 34.764822 -114.802532 107 7481ft 127kts
16-Dec-19 10:11 34.751019 -114.776186 121 7483ft 129kts
16-Dec-19 10:12 34.735698 -114.751409 122 7483ft 129kts
16-Dec-19 10:13 34.720312 -114.726822 123 7483ft 129kts
16-Dec-19 10:14 34.703976 -114.700799 122 7274ft 130kts
16-Dec-19 10:15 34.691226 -114.680492 123 6979ft 128kts
16-Dec-19 10:16 34.674373 -114.653607 122 6606ft 125kts
16-Dec-19 10:17 34.657963 -114.628256 120 6460ft 128kts
16-Dec-19 10:18 34.642678 -114.603205 122 6095ft 126kts
16-Dec-19 10:19 34.629424 -114.582053 122 5780ft 127kts
16-Dec-19 10:20 34.615570 -114.556334 113 5735ft 125kts
16-Dec-19 10:21 34.608503 -114.524331 91 4623ft 178kts
16-Dec-19 10:22 34.603981 -114.498432 99 4209ft 133kts
16-Dec-19 10:23 34.593393 -114.471450 118 3399ft 118kts
16-Dec-19 10:24 34.577938 -114.445498 119 2108ft 132kts
16-Dec-19 10:25 34.556826 -114.431435 179 1255ft 102kts
16-Dec-19 10:26 34.539153 -114.431431 192 743ft 70kts
16-Dec-19 10:27 34.529845 -114.431876 178 614ft 23kts
16-Dec-19 10:28 34.529083 -114.430375 339 614ft 0kts
16-Dec-19 10:29 34.529083 -114.430375 339 614ft 0kts
16-Dec-19 10:30 34.529083 -114.430375 339 614ft 0kts
16-Dec-19 10:31 34.529083 -114.430375 339 614ft 0kts
16-Dec-19 10:32 34.529083 -114.430375 339 614ft 0kts

Navigation Log

Ident Type
Flight plan parsing failed, navigation log unavailable